Time;durP1;ratioP1;P1;durP2;ratioP2;P2;SDS_P1;SDS_P2;PMS_P1;PMS_P2;Temp;Humidity;BMP_temperature;BMP_pressure;BME280_temperature;BME280_humidity;BME280_pressure;Samples;Min_cycle;Max_cycle;Signal;HPM_P1;HPM_P2
2023/06/16 00:00:37;;;;;;;12.07;5.88;;;;;;;15.40;100.00;94373.34;5093593;28;20357;-79
2023/06/16 00:03:03;;;;;;;12.80;6.25;;;;;;;15.08;100.00;94369.78;5092696;28;20027;-79
2023/06/16 00:05:29;;;;;;;8.52;6.18;;;;;;;15.16;100.00;94373.59;5094626;28;20024;-80
2023/06/16 00:07:59;;;;;;;8.80;5.65;;;;;;;15.04;100.00;94366.94;5093229;28;20027;-80
2023/06/16 00:10:25;;;;;;;14.40;6.78;;;;;;;14.96;100.00;94380.84;5094391;28;20032;-80
2023/06/16 00:12:50;;;;;;;10.15;5.93;;;;;;;14.71;100.00;94377.59;5093103;28;20420;-79
2023/06/16 00:15:16;;;;;;;10.93;6.22;;;;;;;14.40;100.00;94376.28;5092894;28;20032;-79
2023/06/16 00:17:46;;;;;;;9.73;5.78;;;;;;;14.54;100.00;94372.88;5092980;28;20042;-79
2023/06/16 00:20:13;;;;;;;9.38;6.20;;;;;;;14.60;100.00;94370.94;5094293;28;20031;-80
2023/06/16 00:22:39;;;;;;;9.13;6.20;;;;;;;14.64;100.00;94379.84;5093068;28;20437;-79
2023/06/16 00:25:05;;;;;;;10.50;6.28;;;;;;;14.66;100.00;94380.34;5093720;28;20034;-79
2023/06/16 00:27:30;;;;;;;14.45;6.45;;;;;;;14.49;100.00;94373.78;5092874;28;20364;-80
2023/06/16 00:29:55;;;;;;;10.95;6.20;;;;;;;14.60;100.00;94373.56;5093767;28;20047;-80
2023/06/16 00:32:21;;;;;;;9.38;6.00;;;;;;;14.60;100.00;94373.56;5094145;28;20119;-80
2023/06/16 00:34:46;;;;;;;10.48;6.07;;;;;;;14.41;100.00;94369.94;5093687;28;20032;-80
2023/06/16 00:37:12;;;;;;;10.52;6.28;;;;;;;14.22;100.00;94375.31;5093797;28;20464;-80
2023/06/16 00:39:37;;;;;;;10.55;6.60;;;;;;;14.18;100.00;94374.28;5078244;28;20042;-79
2023/06/16 00:42:03;;;;;;;9.90;6.32;;;;;;;14.15;100.00;94385.41;5076470;28;20031;-80
2023/06/16 00:44:28;;;;;;;12.40;6.78;;;;;;;14.19;100.00;94380.34;5078410;28;20039;-80
2023/06/16 00:46:54;;;;;;;9.70;6.18;;;;;;;14.27;100.00;94377.03;5080391;28;20028;-80
2023/06/16 00:49:20;;;;;;;11.55;5.80;;;;;;;14.25;100.00;94379.19;5078906;28;20380;-79
2023/06/16 00:51:46;;;;;;;8.48;5.80;;;;;;;14.38;100.00;94377.66;5079550;28;20033;-80
2023/06/16 00:54:15;;;;;;;11.30;6.38;;;;;;;14.25;100.00;94372.06;5092781;28;20123;-79
2023/06/16 00:56:43;;;;;;;11.23;6.97;;;;;;;14.19;100.00;94375.84;5100806;28;20024;-79
2023/06/16 00:59:08;;;;;;;14.18;6.68;;;;;;;14.22;100.00;94370.03;5100299;28;20028;-79
2023/06/16 01:01:34;;;;;;;12.98;6.55;;;;;;;14.17;100.00;94383.28;5099502;28;20028;-79
2023/06/16 01:04:00;;;;;;;12.50;6.78;;;;;;;14.25;100.00;94381.81;5098910;28;20134;-79
2023/06/16 01:07:01;;;;;;;8.85;5.65;;;;;;;14.36;100.00;94379.81;5089180;28;20056;-79
2023/06/16 01:09:53;;;;;;;11.23;6.70;;;;;;;14.20;100.00;94385.34;5087614;28;20060;-79
2023/06/16 01:12:21;;;;;;;9.82;5.47;;;;;;;14.04;100.00;94389.28;5087209;28;20521;-79
2023/06/16 01:15:04;;;;;;;8.98;5.82;;;;;;;14.22;100.00;94391.09;5089483;28;20028;-79
2023/06/16 01:17:31;;;;;;;12.30;5.97;;;;;;;14.24;100.00;94394.22;5091509;28;20028;-79
2023/06/16 01:20:06;;;;;;;6.30;5.20;;;;;;;14.31;100.00;94406.25;5093818;28;20351;-79
2023/06/16 01:23:08;;;;;;;8.90;5.75;;;;;;;14.32;100.00;94400.69;5099224;28;20140;-79
2023/06/16 01:25:38;;;;;;;15.38;5.13;;;;;;;14.35;100.00;94396.72;5099311;28;20062;-79
2023/06/16 01:28:05;;;;;;;13.85;6.07;;;;;;;14.33;100.00;94402.25;5098866;28;20035;-79
2023/06/16 01:30:32;;;;;;;8.52;6.38;;;;;;;13.94;100.00;94387.59;5090647;28;20153;-79
2023/06/16 01:32:58;;;;;;;8.60;5.72;;;;;;;14.19;100.00;94396.94;5114097;28;20424;-79
2023/06/16 01:35:25;;;;;;;11.43;6.05;;;;;;;14.34;100.00;94389.84;5120204;28;20024;-79
2023/06/16 01:37:51;;;;;;;11.43;5.57;;;;;;;14.48;100.00;94387.25;5118898;28;20031;-79
2023/06/16 01:40:18;;;;;;;12.90;5.82;;;;;;;14.84;100.00;94383.97;5118613;28;20386;-79
2023/06/16 01:42:46;;;;;;;9.00;5.60;;;;;;;14.70;100.00;94381.31;5117985;28;20042;-79
2023/06/16 01:45:13;;;;;;;10.10;6.13;;;;;;;14.60;100.00;94379.66;5118112;28;20059;-79
2023/06/16 01:47:38;;;;;;;10.27;6.30;;;;;;;14.51;100.00;94376.91;5119792;28;20088;-79
2023/06/16 01:50:04;;;;;;;7.82;5.88;;;;;;;14.44;100.00;94373.84;5118129;28;20019;-79
2023/06/16 01:52:29;;;;;;;7.47;5.03;;;;;;;14.63;100.00;94376.41;5119889;27;20452;-79
2023/06/16 01:54:55;;;;;;;8.40;5.25;;;;;;;14.74;100.00;94374.41;5117475;28;20039;-79
2023/06/16 01:57:21;;;;;;;8.57;5.55;;;;;;;14.51;100.00;94373.47;5118822;28;20321;-79
2023/06/16 01:59:51;;;;;;;9.57;5.55;;;;;;;14.41;100.00;94375.22;5118167;28;20612;-79
2023/06/16 02:02:19;;;;;;;10.05;5.95;;;;;;;14.52;100.00;94372.41;5118015;28;20039;-80
2023/06/16 02:04:48;;;;;;;14.32;5.10;;;;;;;14.67;100.00;94376.63;5117925;28;20348;-79
2023/06/16 02:07:17;;;;;;;13.90;6.68;;;;;;;14.17;100.00;94388.53;5118147;28;20465;-79
2023/06/16 02:09:42;;;;;;;11.05;6.07;;;;;;;14.07;100.00;94396.63;5118396;28;20031;-79
2023/06/16 02:12:11;;;;;;;9.13;5.95;;;;;;;14.11;100.00;94394.97;5118329;28;20089;-79
2023/06/16 02:14:37;;;;;;;8.27;5.50;;;;;;;14.39;100.00;94400.31;5118534;28;20355;-79
2023/06/16 02:17:07;;;;;;;7.68;5.15;;;;;;;14.53;100.00;94393.22;5117575;28;20026;-79
2023/06/16 02:19:33;;;;;;;7.00;4.97;;;;;;;14.64;100.00;94393.03;5119333;28;20035;-79
2023/06/16 02:21:59;;;;;;;8.20;5.47;;;;;;;14.67;100.00;94390.56;5119280;28;20428;-79
2023/06/16 02:24:25;;;;;;;8.77;5.70;;;;;;;14.66;100.00;94382.97;5119100;28;20472;-79
2023/06/16 02:26:50;;;;;;;9.63;5.57;;;;;;;14.56;100.00;94383.91;5113168;28;20055;-79
2023/06/16 02:29:16;;;;;;;11.77;5.60;;;;;;;14.43;100.00;94385.47;5077043;28;20036;-79
2023/06/16 02:31:49;;;;;;;9.25;5.20;;;;;;;14.27;100.00;94392.84;5078014;28;20120;-79
2023/06/16 02:34:15;;;;;;;10.65;5.40;;;;;;;14.20;100.00;94395.09;5078781;28;20086;-79
2023/06/16 02:36:40;;;;;;;10.50;5.75;;;;;;;14.14;100.00;94389.91;5077860;28;20023;-79
2023/06/16 02:39:07;;;;;;;9.43;5.85;;;;;;;14.19;100.00;94393.53;5077212;28;20040;-79
2023/06/16 02:41:33;;;;;;;13.85;5.18;;;;;;;14.19;100.00;94404.06;5082629;28;20036;-81
2023/06/16 02:43:59;;;;;;;8.23;5.63;;;;;;;14.26;100.00;94405.25;5080404;28;20181;-82
2023/06/16 02:46:24;;;;;;;7.95;5.43;;;;;;;14.10;100.00;94419.75;5077541;28;20969;-82
2023/06/16 02:48:50;;;;;;;8.27;5.50;;;;;;;13.63;100.00;94409.91;5076761;28;20043;-82
2023/06/16 02:51:15;;;;;;;9.50;5.75;;;;;;;13.57;100.00;94424.22;5076417;28;20044;-82
2023/06/16 02:53:41;;;;;;;17.83;10.27;;;;;;;13.92;100.00;94427.41;5077127;28;20074;-82
2023/06/16 02:56:07;;;;;;;13.15;7.32;;;;;;;13.83;100.00;94427.25;5077550;28;20028;-82
2023/06/16 02:58:32;;;;;;;25.60;12.35;;;;;;;14.14;100.00;94421.53;5077661;28;20036;-82
2023/06/16 03:00:58;;;;;;;17.63;9.82;;;;;;;14.11;100.00;94427.34;5059986;28;20034;-82
2023/06/16 03:03:25;;;;;;;17.25;9.80;;;;;;;14.21;100.00;94413.25;5075334;28;20039;-82
2023/06/16 03:05:50;;;;;;;15.35;8.85;;;;;;;14.00;100.00;94410.16;5076397;28;20028;-82
2023/06/16 03:08:16;;;;;;;20.15;7.97;;;;;;;13.85;100.00;94416.44;5077470;28;20034;-82
2023/06/16 03:10:41;;;;;;;13.57;8.43;;;;;;;13.67;100.00;94410.91;5077332;28;20357;-81
2023/06/16 03:13:07;;;;;;;12.73;8.60;;;;;;;13.63;100.00;94412.56;5077552;28;20036;-81
2023/06/16 03:15:32;;;;;;;13.50;8.57;;;;;;;13.55;100.00;94415.81;5076360;28;20119;-81
2023/06/16 03:17:58;;;;;;;13.07;8.40;;;;;;;13.89;100.00;94417.44;5077062;28;20028;-82
2023/06/16 03:20:23;;;;;;;12.70;8.40;;;;;;;14.10;100.00;94417.13;5077280;28;20442;-82
2023/06/16 03:22:49;;;;;;;15.00;9.90;;;;;;;13.89;100.00;94403.50;5077520;28;20036;-82
2023/06/16 03:25:15;;;;;;;16.70;9.25;;;;;;;14.11;100.00;94398.38;5077269;28;20063;-82
2023/06/16 03:27:41;;;;;;;15.13;10.02;;;;;;;14.13;100.00;94395.47;5077489;28;20116;-82
2023/06/16 03:30:09;;;;;;;18.60;9.85;;;;;;;14.13;100.00;94387.56;5075822;28;20036;-81
2023/06/16 03:32:37;;;;;;;12.93;9.20;;;;;;;14.02;100.00;94386.16;5077208;28;20040;-82
2023/06/16 03:35:03;;;;;;;15.05;9.10;;;;;;;14.12;100.00;94386.00;5075271;28;20029;-82
2023/06/16 03:37:28;;;;;;;15.10;9.85;;;;;;;13.99;100.00;94388.31;5075810;28;20028;-82
2023/06/16 03:39:53;;;;;;;18.67;10.68;;;;;;;13.98;100.00;94392.00;5077084;28;20038;-82
2023/06/16 03:42:19;;;;;;;14.60;9.48;;;;;;;13.90;100.00;94394.53;5076802;28;20036;-82
2023/06/16 03:44:44;;;;;;;20.35;8.73;;;;;;;14.13;100.00;94388.34;5076607;28;20472;-84
2023/06/16 03:47:10;;;;;;;15.93;8.90;;;;;;;14.38;100.00;94385.56;5077171;28;20043;-82
2023/06/16 03:49:35;;;;;;;12.88;8.52;;;;;;;14.37;100.00;94394.56;5076249;28;20036;-82
2023/06/16 03:52:01;;;;;;;16.27;8.50;;;;;;;14.35;100.00;94397.47;5084926;28;20032;-82
2023/06/16 03:54:26;;;;;;;13.35;8.90;;;;;;;14.64;100.00;94395.66;5084600;28;20063;-82
2023/06/16 03:56:52;;;;;;;14.48;8.73;;;;;;;14.71;100.00;94390.78;5087054;28;20043;-82
2023/06/16 03:59:18;;;;;;;13.38;7.57;;;;;;;14.87;100.00;94393.94;5095727;28;20036;-82
2023/06/16 04:01:46;;;;;;;18.75;8.25;;;;;;;14.89;100.00;94401.56;5094923;28;20063;-82
2023/06/16 04:04:12;;;;;;;11.50;6.97;;;;;;;15.04;100.00;94398.63;5096149;28;20040;-82
2023/06/16 04:06:37;;;;;;;11.23;6.75;;;;;;;15.17;100.00;94396.25;5095510;28;20097;-82
2023/06/16 04:09:03;;;;;;;14.68;7.68;;;;;;;14.90;100.00;94397.84;5097114;28;20032;-82
2023/06/16 04:11:29;;;;;;;11.52;7.20;;;;;;;14.94;100.00;94389.03;5095898;28;20036;-82
2023/06/16 04:13:55;;;;;;;11.05;6.65;;;;;;;14.98;100.00;94394.53;5095368;28;20146;-82
2023/06/16 04:16:20;;;;;;;13.68;9.18;;;;;;;14.85;100.00;94398.75;5095410;28;20353;-82
2023/06/16 04:18:48;;;;;;;15.13;8.57;;;;;;;15.01;100.00;94407.13;5096193;28;20036;-82
2023/06/16 04:21:16;;;;;;;12.40;7.93;;;;;;;15.01;100.00;94404.47;5096974;28;20345;-82
2023/06/16 04:23:41;;;;;;;9.25;6.93;;;;;;;14.93;100.00;94405.19;5096577;28;20032;-82
2023/06/16 04:26:08;;;;;;;12.95;6.97;;;;;;;15.03;100.00;94396.28;5096941;28;20475;-82
2023/06/16 04:28:38;;;;;;;11.18;6.43;;;;;;;14.92;100.00;94406.22;5095600;28;20036;-82
2023/06/16 04:31:05;;;;;;;12.70;5.68;;;;;;;14.81;100.00;94403.00;5095456;28;20411;-82
2023/06/16 04:33:30;;;;;;;9.90;6.30;;;;;;;14.68;100.00;94404.56;5092982;28;20044;-81
2023/06/16 04:35:56;;;;;;;9.85;6.00;;;;;;;14.75;100.00;94398.91;5095584;28;20036;-81
2023/06/16 04:38:22;;;;;;;10.27;6.15;;;;;;;14.77;100.00;94404.69;5095245;28;20040;-81
2023/06/16 04:40:48;;;;;;;9.60;5.43;;;;;;;14.88;100.00;94394.72;5096684;28;20047;-81
2023/06/16 04:43:14;;;;;;;7.75;5.45;;;;;;;15.04;100.00;94392.56;5094945;28;20040;-81
2023/06/16 04:45:39;;;;;;;8.50;5.20;;;;;;;15.18;100.00;94389.91;5096288;28;20043;-81
2023/06/16 04:48:04;;;;;;;7.88;5.28;;;;;;;15.17;100.00;94390.97;5096567;28;20048;-82
2023/06/16 04:50:30;;;;;;;13.93;6.68;;;;;;;14.79;100.00;94397.25;5096713;28;20035;-81
2023/06/16 04:52:56;;;;;;;12.25;6.40;;;;;;;14.72;100.00;94396.88;5077866;28;20028;-81
2023/06/16 04:55:22;;;;;;;19.17;7.25;;;;;;;14.63;100.00;94394.88;5094522;28;20349;-81
2023/06/16 04:57:47;;;;;;;13.30;5.93;;;;;;;14.76;100.00;94389.94;5096241;28;20032;-81
2023/06/16 05:00:13;;;;;;;8.25;5.28;;;;;;;15.00;100.00;94391.59;5095084;28;20330;-81
2023/06/16 05:02:40;;;;;;;7.53;5.00;;;;;;;15.15;100.00;94401.84;5093032;28;20464;-81
2023/06/16 05:05:06;;;;;;;10.48;5.72;;;;;;;14.94;100.00;94396.97;5078691;28;20356;-82
2023/06/16 05:07:31;;;;;;;12.48;6.03;;;;;;;15.11;100.00;94403.50;5081848;28;20047;-82
2023/06/16 05:09:57;;;;;;;11.15;6.00;;;;;;;15.23;100.00;94390.59;5076300;28;20074;-82
2023/06/16 05:12:24;;;;;;;8.05;5.63;;;;;;;15.26;100.00;94395.25;5075936;28;20449;-81
2023/06/16 05:14:50;;;;;;;15.38;6.15;;;;;;;15.18;100.00;94395.19;5074933;28;20043;-81
2023/06/16 05:17:15;;;;;;;10.85;6.50;;;;;;;15.31;100.00;94393.63;5074665;28;20036;-82
2023/06/16 05:19:41;;;;;;;12.48;7.03;;;;;;;14.92;100.00;94393.84;5076081;28;20040;-82
2023/06/16 05:22:06;;;;;;;9.07;5.90;;;;;;;14.78;100.00;94396.50;5076043;28;20036;-81
2023/06/16 05:24:31;;;;;;;11.63;7.22;;;;;;;14.72;100.00;94392.38;5077071;28;20134;-81
2023/06/16 05:26:57;;;;;;;12.93;6.40;;;;;;;14.90;100.00;94395.19;5092910;28;20032;-81
2023/06/16 05:29:23;;;;;;;11.60;6.65;;;;;;;15.25;100.00;94398.22;5093462;28;20036;-82
2023/06/16 05:31:48;;;;;;;12.45;6.18;;;;;;;15.64;100.00;94407.44;5104034;28;20080;-80
2023/06/16 05:34:14;;;;;;;12.60;6.35;;;;;;;15.80;100.00;94415.00;5116012;27;20039;-79
2023/06/16 05:36:40;;;;;;;11.90;5.53;;;;;;;15.66;100.00;94407.91;5099743;28;20036;-80
2023/06/16 05:39:11;;;;;;;8.75;6.15;;;;;;;15.50;100.00;94415.38;5092284;28;20089;-80
2023/06/16 05:41:36;;;;;;;8.27;5.78;;;;;;;15.96;100.00;94410.97;5099562;28;20035;-80
2023/06/16 05:44:01;;;;;;;7.60;5.72;;;;;;;16.05;100.00;94402.28;5099000;28;20043;-80
2023/06/16 05:46:27;;;;;;;9.50;6.03;;;;;;;16.45;100.00;94401.63;5099335;28;20031;-80
2023/06/16 05:48:54;;;;;;;9.40;5.55;;;;;;;16.74;100.00;94401.13;5098433;28;20099;-80
2023/06/16 05:51:20;;;;;;;9.13;5.93;;;;;;;16.58;100.00;94403.41;5099233;28;20063;-80
2023/06/16 05:53:45;;;;;;;8.00;5.50;;;;;;;16.96;100.00;94399.50;5099214;28;20061;-80
2023/06/16 05:56:10;;;;;;;10.10;5.90;;;;;;;17.20;100.00;94407.06;5098062;28;20048;-80
2023/06/16 05:58:36;;;;;;;11.07;5.38;;;;;;;17.16;100.00;94411.41;5097738;28;20024;-80
2023/06/16 06:01:13;;;;;;;11.02;5.82;;;;;;;16.74;100.00;94416.22;5097124;28;20131;-80
2023/06/16 06:03:44;;;;;;;8.40;5.22;;;;;;;16.96;100.00;94410.06;5095812;28;20072;-80
2023/06/16 06:06:09;;;;;;;8.07;5.82;;;;;;;16.66;100.00;94421.16;5097859;28;20028;-80
2023/06/16 06:08:35;;;;;;;7.60;5.32;;;;;;;17.09;100.00;94419.00;5098511;28;20031;-80
2023/06/16 06:11:01;;;;;;;9.45;5.30;;;;;;;17.16;100.00;94421.22;5098728;28;20077;-80
2023/06/16 06:13:27;;;;;;;7.32;4.93;;;;;;;17.38;100.00;94429.06;5097096;28;20490;-80
2023/06/16 06:15:52;;;;;;;11.80;5.57;;;;;;;17.16;100.00;94426.50;5097553;28;20032;-80
2023/06/16 06:18:18;;;;;;;10.52;5.70;;;;;;;17.21;100.00;94429.78;5091207;28;20391;-81
2023/06/16 06:20:45;;;;;;;6.22;5.05;;;;;;;17.27;100.00;94432.28;5093102;28;20097;-80
2023/06/16 06:23:10;;;;;;;10.15;5.55;;;;;;;17.43;100.00;94437.94;5091014;28;20031;-81
2023/06/16 06:25:36;;;;;;;9.60;5.50;;;;;;;17.63;100.00;94434.69;5097735;28;20085;-81
2023/06/16 06:28:01;;;;;;;8.40;5.80;;;;;;;17.55;100.00;94432.81;5098847;28;20084;-81
2023/06/16 06:30:27;;;;;;;12.20;6.00;;;;;;;17.64;100.00;94438.91;5097094;28;20028;-81
2023/06/16 06:32:53;;;;;;;6.85;5.25;;;;;;;18.09;100.00;94439.75;5097412;28;20337;-80
2023/06/16 06:35:18;;;;;;;12.32;5.28;;;;;;;18.40;100.00;94444.06;5098605;28;20032;-80
2023/06/16 06:37:44;;;;;;;7.43;4.82;;;;;;;18.61;100.00;94449.47;5098664;28;20036;-80
2023/06/16 06:40:09;;;;;;;6.20;4.93;;;;;;;18.81;100.00;94441.16;5097490;28;20032;-81
2023/06/16 06:42:35;;;;;;;7.68;5.20;;;;;;;19.00;100.00;94449.53;5097990;28;20043;-81
2023/06/16 06:45:01;;;;;;;10.00;5.40;;;;;;;19.13;100.00;94444.34;5097845;28;20024;-80
2023/06/16 06:47:26;;;;;;;9.32;5.40;;;;;;;18.49;100.00;94452.00;5097329;28;20035;-81
2023/06/16 06:49:53;;;;;;;7.65;4.90;;;;;;;18.82;100.00;94450.69;5097031;28;20028;-81
2023/06/16 06:52:19;;;;;;;12.13;5.28;;;;;;;18.81;100.00;94454.44;5097188;28;20032;-81
2023/06/16 06:54:44;;;;;;;9.02;5.57;;;;;;;18.91;100.00;94448.75;5097124;28;20040;-81
2023/06/16 06:57:11;;;;;;;9.60;4.70;;;;;;;19.04;100.00;94450.44;5098320;28;20453;-81
2023/06/16 06:59:38;;;;;;;8.25;5.50;;;;;;;18.92;100.00;94455.63;5098323;28;20071;-81
2023/06/16 07:02:05;;;;;;;7.50;5.00;;;;;;;18.88;100.00;94457.38;5098164;28;20036;-80
2023/06/16 07:04:31;;;;;;;9.38;6.10;;;;;;;18.62;100.00;94453.69;5097641;28;20360;-80
2023/06/16 07:06:56;;;;;;;8.68;5.15;;;;;;;19.31;100.00;94459.09;5098101;28;20036;-80
2023/06/16 07:09:21;;;;;;;6.93;5.30;;;;;;;19.43;100.00;94463.69;5096942;28;20036;-81
2023/06/16 07:11:47;;;;;;;9.38;6.20;;;;;;;19.52;100.00;94468.19;5098065;28;20501;-81
2023/06/16 07:14:13;;;;;;;9.43;5.43;;;;;;;19.73;100.00;94476.19;5097851;28;20038;-81
2023/06/16 07:16:38;;;;;;;9.02;5.75;;;;;;;19.95;100.00;94472.47;5097889;28;20032;-81
2023/06/16 07:19:03;;;;;;;8.90;5.80;;;;;;;19.73;100.00;94474.34;5097826;28;20031;-81
2023/06/16 07:21:29;;;;;;;14.13;6.30;;;;;;;19.78;100.00;94471.47;5096717;28;20039;-81
2023/06/16 07:23:54;;;;;;;10.27;5.55;;;;;;;20.01;100.00;94473.06;5097682;28;20043;-81
2023/06/16 07:26:20;;;;;;;8.30;5.47;;;;;;;19.99;100.00;94470.72;5097814;28;20057;-81
2023/06/16 07:28:45;;;;;;;12.18;6.00;;;;;;;19.97;100.00;94474.81;5097767;28;20440;-81
2023/06/16 07:31:10;;;;;;;9.10;5.75;;;;;;;20.02;100.00;94469.31;5096388;28;20047;-81
2023/06/16 07:33:36;;;;;;;7.75;5.43;;;;;;;19.82;100.00;94476.13;5097539;28;20093;-81
2023/06/16 07:36:02;;;;;;;10.80;6.15;;;;;;;19.99;100.00;94472.63;5097532;28;20110;-81
2023/06/16 07:38:27;;;;;;;9.02;6.18;;;;;;;19.85;100.00;94470.97;5096417;28;20036;-81
2023/06/16 07:40:52;;;;;;;11.93;5.63;;;;;;;19.88;100.00;94475.63;5097469;28;20036;-81
2023/06/16 07:43:18;;;;;;;13.52;6.00;;;;;;;20.30;100.00;94464.22;5095813;28;20031;-81
2023/06/16 07:45:43;;;;;;;9.00;5.78;;;;;;;20.27;100.00;94469.41;5097345;28;20036;-81
2023/06/16 07:48:10;;;;;;;9.98;5.50;;;;;;;20.55;100.00;94460.88;5097169;28;20039;-81
2023/06/16 07:50:35;;;;;;;12.05;6.28;;;;;;;20.18;100.00;94464.19;5096270;28;20040;-81
2023/06/16 07:53:00;;;;;;;9.20;5.47;;;;;;;20.34;100.00;94459.00;5096138;28;20034;-78
2023/06/16 07:55:26;;;;;;;11.90;5.50;;;;;;;20.44;100.00;94458.63;5097508;28;20430;-79
2023/06/16 07:57:52;;;;;;;9.52;5.43;;;;;;;20.52;100.00;94458.88;5097566;28;20032;-78
2023/06/16 08:00:18;;;;;;;9.32;5.47;;;;;;;20.31;100.00;94457.81;5097416;28;20036;-78
2023/06/16 08:02:44;;;;;;;8.43;4.50;;;;;;;20.76;100.00;94464.25;5079441;28;20118;-78
2023/06/16 08:05:11;;;;;;;7.65;4.10;;;;;;;20.92;100.00;94466.28;5095486;28;20400;-78
2023/06/16 08:07:36;;;;;;;8.43;2.85;;;;;;;21.07;100.00;94464.09;5097308;28;20040;-78
2023/06/16 08:10:03;;;;;;;11.27;3.92;;;;;;;21.24;100.00;94463.09;5097388;28;20046;-78
2023/06/16 08:12:28;;;;;;;7.63;3.30;;;;;;;21.12;100.00;94454.00;5095912;28;20032;-78
2023/06/16 08:14:54;;;;;;;10.07;3.97;;;;;;;21.29;100.00;94453.00;5095461;28;20040;-78
2023/06/16 08:17:20;;;;;;;6.40;3.63;;;;;;;21.08;100.00;94452.31;5097306;28;20119;-79
2023/06/16 08:19:45;;;;;;;9.30;4.03;;;;;;;21.07;100.00;94456.88;5096103;28;20096;-79
2023/06/16 08:22:11;;;;;;;9.40;4.15;;;;;;;21.01;100.00;94448.34;5096865;28;20108;-78
2023/06/16 08:24:37;;;;;;;6.13;3.97;;;;;;;21.22;100.00;94446.69;5095584;28;20043;-78
2023/06/16 08:27:04;;;;;;;4.72;3.40;;;;;;;21.31;99.03;94448.13;5097238;28;20107;-78
2023/06/16 08:29:30;;;;;;;7.50;3.95;;;;;;;21.10;100.00;94450.13;5095597;28;20077;-78
2023/06/16 08:31:56;;;;;;;8.70;4.03;;;;;;;21.35;100.00;94452.78;5096787;28;20032;-78
2023/06/16 08:34:21;;;;;;;7.55;3.90;;;;;;;21.47;100.00;94455.44;5095478;28;20088;-79
2023/06/16 08:36:47;;;;;;;5.38;3.63;;;;;;;21.68;100.00;94446.56;5095826;28;20044;-78
2023/06/16 08:39:12;;;;;;;5.15;4.03;;;;;;;21.65;100.00;94449.84;5095967;28;20036;-78
2023/06/16 08:41:38;;;;;;;6.05;3.95;;;;;;;21.78;100.00;94446.06;5095868;28;20044;-78
2023/06/16 08:44:07;;;;;;;8.75;3.90;;;;;;;21.79;100.00;94450.28;5095676;28;20036;-78
2023/06/16 08:46:32;;;;;;;8.88;4.00;;;;;;;22.00;100.00;94454.72;5096682;28;20114;-78
2023/06/16 08:48:58;;;;;;;12.32;4.35;;;;;;;21.94;100.00;94450.72;5097031;28;20161;-78
2023/06/16 08:51:25;;;;;;;5.63;3.33;;;;;;;21.59;85.25;94447.44;5095539;28;20085;-78
2023/06/16 08:53:57;;;;;;;4.28;3.53;;;;;;;21.83;100.00;94451.19;5095185;28;20042;-78
2023/06/16 08:56:22;;;;;;;6.47;3.78;;;;;;;22.13;100.00;94447.44;5095715;28;20042;-78
2023/06/16 08:58:48;;;;;;;5.82;4.03;;;;;;;21.75;82.08;94446.75;5095481;28;20355;-78
2023/06/16 09:01:14;;;;;;;6.07;3.67;;;;;;;21.56;88.39;94452.63;5096949;28;20035;-78
2023/06/16 09:03:41;;;;;;;8.95;4.03;;;;;;;22.13;100.00;94445.56;5095387;28;20150;-78
2023/06/16 09:06:10;;;;;;;6.97;3.80;;;;;;;22.08;100.00;94443.09;5099230;28;20425;-78
2023/06/16 09:08:36;;;;;;;8.88;4.70;;;;;;;22.15;100.00;94437.97;5099617;28;20036;-78
2023/06/16 09:11:07;;;;;;;6.28;4.35;;;;;;;21.99;100.00;94443.25;5099524;28;20383;-78
2023/06/16 09:13:32;;;;;;;5.45;3.97;;;;;;;22.23;96.20;94446.16;5098983;28;20035;-78
2023/06/16 09:15:59;;;;;;;9.35;3.60;;;;;;;22.41;87.65;94443.97;5099361;28;20028;-79
2023/06/16 09:18:36;;;;;;;7.15;3.80;;;;;;;22.45;85.09;94440.28;5100504;28;20429;-78
2023/06/16 09:21:05;;;;;;;5.20;3.90;;;;;;;22.02;80.32;94437.25;5099349;28;20040;-78
2023/06/16 09:23:31;;;;;;;6.25;3.83;;;;;;;22.54;100.00;94442.84;5100246;28;20053;-81
2023/06/16 09:25:57;;;;;;;7.55;4.03;;;;;;;22.46;92.47;94441.09;5099800;28;20024;-81
2023/06/16 09:28:36;;;;;;;11.25;4.20;;;;;;;22.62;89.06;94432.34;5098513;28;20032;-81
2023/06/16 09:31:04;;;;;;;8.02;3.97;;;;;;;22.63;95.93;94437.31;5098828;28;20452;-81
2023/06/16 09:33:30;;;;;;;4.60;3.55;;;;;;;22.98;93.46;94433.22;5099688;28;20039;-81
2023/06/16 09:35:57;;;;;;;8.07;4.20;;;;;;;22.85;84.41;94433.28;5098247;28;20042;-81
2023/06/16 09:38:23;;;;;;;6.28;3.67;;;;;;;22.83;89.86;94442.78;5098642;28;20115;-81
2023/06/16 09:40:48;;;;;;;7.22;4.15;;;;;;;23.01;86.73;94441.31;5098385;28;20059;-81
2023/06/16 09:43:14;;;;;;;9.70;4.03;;;;;;;23.24;86.95;94440.72;5098197;28;20113;-81
2023/06/16 09:45:40;;;;;;;6.70;3.88;;;;;;;23.11;76.37;94439.25;5098524;28;20036;-81
2023/06/16 09:48:10;;;;;;;8.65;3.40;;;;;;;23.26;83.09;94441.19;5099421;28;20035;-81
2023/06/16 09:50:37;;;;;;;6.18;3.65;;;;;;;23.60;75.61;94446.13;5098195;28;20506;-81
2023/06/16 09:53:07;;;;;;;5.03;3.40;;;;;;;23.56;89.15;94442.56;5099184;28;20414;-81
2023/06/16 09:55:37;;;;;;;7.22;3.85;;;;;;;23.50;70.62;94442.06;5098213;28;20040;-81
2023/06/16 09:58:02;;;;;;;6.30;3.58;;;;;;;23.45;86.71;94439.66;5099488;28;20059;-81
2023/06/16 10:00:30;;;;;;;8.05;3.42;;;;;;;23.40;72.57;94443.38;5098595;28;20383;-81
2023/06/16 10:02:56;;;;;;;7.10;3.30;;;;;;;23.45;77.59;94437.00;5098136;28;20122;-81
2023/06/16 10:05:24;;;;;;;9.00;3.78;;;;;;;23.39;70.45;94433.81;5098042;28;20055;-81
2023/06/16 10:07:59;;;;;;;9.10;3.83;;;;;;;23.48;79.96;94441.66;5098033;28;20038;-81
2023/06/16 10:10:29;;;;;;;5.35;3.28;;;;;;;23.28;65.18;94436.25;5097965;28;20036;-81
2023/06/16 10:12:56;;;;;;;10.63;3.60;;;;;;;23.79;78.55;94431.22;5097749;28;20453;-81
2023/06/16 10:15:23;;;;;;;6.30;3.70;;;;;;;23.79;72.44;94433.91;5099045;28;20333;-81
2023/06/16 10:17:50;;;;;;;6.40;3.55;;;;;;;23.85;73.19;94437.84;5098395;28;20028;-81
2023/06/16 10:20:18;;;;;;;11.82;4.35;;;;;;;23.81;75.50;94432.41;5099005;28;20059;-81
2023/06/16 10:22:44;;;;;;;11.13;4.13;;;;;;;23.87;85.68;94427.56;5098979;28;20032;-81
2023/06/16 10:25:10;;;;;;;5.95;3.55;;;;;;;24.03;80.10;94424.06;5097379;28;20035;-81
2023/06/16 10:27:36;;;;;;;8.10;3.70;;;;;;;23.63;89.51;94426.69;5098955;28;20048;-81
2023/06/16 10:30:03;;;;;;;6.40;4.55;;;;;;;23.36;79.94;94426.50;5097404;28;20056;-81
2023/06/16 10:32:28;;;;;;;6.05;3.65;;;;;;;23.25;84.48;94426.22;5097293;28;20028;-81
2023/06/16 10:34:57;;;;;;;10.02;4.65;;;;;;;22.98;82.30;94420.66;5098658;28;20036;-81
2023/06/16 10:37:27;;;;;;;9.73;3.97;;;;;;;23.04;94.59;94420.38;5098689;28;20036;-81
2023/06/16 10:39:57;;;;;;;6.28;3.90;;;;;;;23.37;90.71;94421.91;5098601;28;20027;-81
2023/06/16 10:42:22;;;;;;;9.35;3.58;;;;;;;23.28;90.90;94417.53;5098703;28;20028;-81
2023/06/16 10:44:49;;;;;;;9.50;3.88;;;;;;;23.12;86.85;94424.78;5097027;28;20089;-81
2023/06/16 10:47:14;;;;;;;5.60;4.00;;;;;;;23.55;75.20;94424.97;5097289;28;20039;-81
2023/06/16 10:49:45;;;;;;;6.20;3.78;;;;;;;23.40;77.43;94421.25;5098579;28;20337;-81
2023/06/16 10:52:15;;;;;;;6.15;3.92;;;;;;;23.36;77.22;94425.72;5096889;28;20077;-81
2023/06/16 10:54:48;;;;;;;6.25;3.90;;;;;;;23.24;81.00;94419.34;5096809;28;20027;-81
2023/06/16 10:57:14;;;;;;;8.13;3.83;;;;;;;23.36;75.77;94431.84;5097929;28;20028;-81
2023/06/16 11:00:10;;;;;;;5.43;3.60;;;;;;;23.09;81.97;94423.56;5096826;28;20016;-81
2023/06/16 11:02:37;;;;;;;6.00;3.67;;;;;;;24.06;97.74;94418.78;5097161;28;20042;-81
2023/06/16 11:05:09;;;;;;;8.60;3.58;;;;;;;24.31;71.50;94407.78;5097149;28;20423;-81
2023/06/16 11:08:05;;;;;;;8.05;3.50;;;;;;;24.63;67.76;94412.19;5097899;28;20056;-81
2023/06/16 11:10:46;;;;;;;4.70;3.40;;;;;;;24.74;75.59;94413.13;5098207;28;20455;-81
2023/06/16 11:13:15;;;;;;;6.38;3.40;;;;;;;23.40;70.49;94405.97;5096928;28;20043;-81
2023/06/16 11:15:44;;;;;;;4.15;3.42;;;;;;;23.83;73.47;94410.66;5096770;28;20050;-81
2023/06/16 11:18:10;;;;;;;6.45;3.65;;;;;;;23.77;71.42;94418.19;5097931;28;20043;-81
2023/06/16 11:20:36;;;;;;;6.93;3.40;;;;;;;23.72;69.49;94407.78;5096730;28;20120;-81
2023/06/16 11:23:02;;;;;;;4.85;3.60;;;;;;;24.11;85.75;94410.50;5096206;28;20416;-81